Impacts METAR Board
IDs:

KELA - Eagle Lake Arpt, TX, US

Updated at: 0600 UTC 19 Aug 2019
Potential Impact None Slight Moderate High
Time 18/18Z 18/19Z 18/20Z 18/21Z 18/22Z 18/23Z 19/00Z 19/01Z 19/02Z 19/03Z 19/04Z 19/05Z 19/06Z
Temp100 99 98 98 98 97 94 90 87 84 83 82 82
Dewpt75 74 77 78 76 75 75 76 76 77 78 79 79
Altim29.90 29.89 29.88 29.86 29.86 29.86 29.87 29.88 29.89 29.91 29.93 29.94 29.93
VIS10 10 10 10 10 10 10 10 10 10 10 10 10
CIG-- -- 50 -- -- -- -- -- -- -- -- -- --
CoverSCTSCTBKNCLRCLRCLRCLRCLRCLRCLRCLRCLRCLR
FltCatVFRVFRVFRVFRVFRVFRVFRVFRVFRVFRVFRVFRVFR
WX--------------------------
WDir210170180170160170170170170170170180
WSpd11 11 9 14 15 12 12 10 6 5 4 6
WGst14 19 19 23 19 17 18 16 -- -- -- -- --
Raw hourly METARs
KELA 181755Z AUTO 21011G14KT 10SM SCT050 38/24 A2990 RMK AO2 T03750237 10376 20258
KELA 181855Z AUTO 17011G19KT 10SM SCT060 SCT070 37/24 A2989 RMK AO2 T03700235
KELA 181955Z AUTO 18009G19KT 10SM SCT041 BKN050 BKN060 37/25 A2988 RMK AO2 T03660251
KELA 182055Z AUTO 17014G23KT 10SM CLR 37/25 A2986 RMK AO2 T03670254
KELA 182155Z AUTO 16015G19KT 10SM CLR 36/25 A2986 RMK AO2 T03640246
KELA 182255Z AUTO 17012G17KT 10SM CLR 36/24 A2986 RMK AO2 T03630239
KELA 182355Z AUTO 17012G18KT 10SM CLR 35/24 A2987 RMK AO2 T03450240 10385 20345
KELA 190055Z AUTO 17010G16KT 10SM CLR 32/25 A2988 RMK AO2 T03210246
KELA 190155Z AUTO 17006KT 10SM CLR 30/24 A2989 RMK AO2 T03030244
KELA 190255Z AUTO 17005KT 10SM CLR 29/25 A2991 RMK AO2 T02900252
KELA 190355Z AUTO 17004KT 10SM CLR 28/26 A2993 RMK AO2 T02820257
KELA 190455Z AUTO 10SM CLR 28/26 A2994 RMK AO2 T02770260
KELA 190555Z AUTO 18006KT 10SM CLR 28/26 A2993 RMK AO2 T02750260 10345 20275 403850255



Page loaded:  06:09 UTC  |   11:09 PM Pacific  |   12:09 AM Mountain  |   01:09 AM Central  |   02:09 AM Eastern

 

ADVISORIES

FORECASTS

FORECASTS

OBSERVATIONS

USER TOOLS

ABOUT US